Time,TemperatureF,DewpointF,PressureIn,WindDirection,WindDirectionDegrees,WindSpeedMPH,WindSpeedGustMPH,Humidity,HourlyPrecipIn,Conditions,Clouds,dailyrainin,SoftwareType,DateUTC
2013-01-09 00:01:00,64.0,33.0,29.91,NE,50,21.0,32.0,31,0.00,,,0.00,,2013-01-09 08:01:00,
2013-01-09 00:22:00,64.0,33.0,29.91,NE,50,21.0,32.0,31,0.00,,,0.00,,2013-01-09 08:22:00,
2013-01-09 00:32:00,64.0,33.0,29.91,NE,50,21.0,32.0,31,0.00,,,0.00,,2013-01-09 08:32:00,
2013-01-09 00:43:00,64.0,33.0,29.91,NE,50,21.0,32.0,31,0.00,,,0.00,,2013-01-09 08:43:00,
2013-01-09 00:53:00,64.0,33.0,29.91,NE,50,21.0,32.0,31,0.00,,,0.00,,2013-01-09 08:53:00,
2013-01-09 03:53:00,64.0,34.0,29.91,ENE,67,10.0,24.0,32,0.00,,,0.00,,2013-01-09 11:53:00,
2013-01-09 11:02:00,59.0,37.0,29.88,SSE,156,3.0,9.0,44,0.00,,,0.00,,2013-01-09 19:02:00,
2013-01-09 11:12:00,59.0,37.0,29.88,SSE,156,3.0,9.0,44,0.00,,,0.00,,2013-01-09 19:12:00,
2013-01-09 11:22:00,59.0,35.0,29.88,SSE,165,4.0,8.0,40,0.00,,,0.00,,2013-01-09 19:22:00,
2013-01-09 11:33:00,59.0,35.0,29.88,SSE,165,4.0,8.0,40,0.00,,,0.00,,2013-01-09 19:33:00,
2013-01-09 11:42:00,59.0,35.0,29.88,SSE,165,4.0,8.0,40,0.00,,,0.00,,2013-01-09 19:42:00,
2013-01-09 11:52:00,59.0,35.0,29.87,SSE,153,5.0,8.0,41,0.00,,,0.00,,2013-01-09 19:52:00,
2013-01-09 12:01:00,59.0,35.0,29.87,SSE,153,5.0,8.0,41,0.00,,,0.00,,2013-01-09 20:01:00,
2013-01-09 12:12:00,59.0,35.0,29.87,SSE,153,5.0,8.0,41,0.00,,,0.00,,2013-01-09 20:12:00,
2013-01-09 12:22:00,60.0,37.0,29.85,North,0,0.0,6.0,42,0.00,,,0.00,,2013-01-09 20:22:00,
2013-01-09 12:33:00,60.0,37.0,29.85,North,0,0.0,6.0,42,0.00,,,0.00,,2013-01-09 20:33:00,
2013-01-09 12:43:00,60.0,37.0,29.85,North,0,0.0,6.0,42,0.00,,,0.00,,2013-01-09 20:43:00,
2013-01-09 12:53:00,60.0,37.0,29.85,North,0,0.0,6.0,42,0.00,,,0.00,,2013-01-09 20:53:00,
2013-01-09 13:02:00,61.0,40.0,29.84,North,0,0.0,5.0,46,0.00,,,0.00,,2013-01-09 21:02:00,
2013-01-09 13:12:00,61.0,40.0,29.84,North,0,0.0,5.0,46,0.00,,,0.00,,2013-01-09 21:12:00,
2013-01-09 13:22:00,61.0,45.0,29.83,North,0,0.0,5.0,56,0.00,,,0.00,,2013-01-09 21:22:00,
2013-01-09 13:33:00,61.0,45.0,29.83,North,0,0.0,5.0,56,0.00,,,0.00,,2013-01-09 21:33:00,
2013-01-09 13:42:00,61.0,45.0,29.83,North,0,0.0,5.0,56,0.00,,,0.00,,2013-01-09 21:42:00,
2013-01-09 13:53:00,61.0,44.0,29.82,North,0,0.0,3.0,53,0.00,,,0.00,,2013-01-09 21:53:00,
2013-01-09 14:02:00,61.0,42.0,29.82,North,0,0.0,5.0,50,0.00,,,0.00,,2013-01-09 22:02:00,
2013-01-09 14:12:00,61.0,42.0,29.82,North,0,0.0,5.0,50,0.00,,,0.00,,2013-01-09 22:12:00,
2013-01-09 14:22:00,61.0,42.0,29.82,North,0,0.0,5.0,50,0.00,,,0.00,,2013-01-09 22:22:00,
2013-01-09 14:32:00,61.0,42.0,29.82,North,0,0.0,5.0,50,0.00,,,0.00,,2013-01-09 22:32:00,
2013-01-09 14:52:00,61.0,45.0,29.81,North,0,0.0,8.0,55,0.00,,,0.00,,2013-01-09 22:52:00,
2013-01-09 15:02:00,61.0,45.0,29.81,North,0,0.0,8.0,55,0.00,,,0.00,,2013-01-09 23:02:00,
2013-01-09 15:12:00,61.0,42.0,29.80,North,0,0.0,1.0,49,0.00,,,0.00,,2013-01-09 23:12:00,
2013-01-09 15:22:00,61.0,42.0,29.80,North,0,0.0,1.0,49,0.00,,,0.00,,2013-01-09 23:22:00,
2013-01-09 15:33:00,61.0,42.0,29.80,North,0,0.0,1.0,49,0.00,,,0.00,,2013-01-09 23:33:00,
2013-01-09 15:43:00,61.0,42.0,29.80,North,0,0.0,1.0,49,0.00,,,0.00,,2013-01-09 23:43:00,
2013-01-09 15:52:00,61.0,41.0,29.80,North,0,0.0,6.0,48,0.00,,,0.00,,2013-01-09 23:52:00,
2013-01-09 16:02:00,61.0,47.0,29.80,North,0,0.0,2.0,60,0.00,,,0.00,,2013-01-10 00:02:00,
2013-01-09 16:12:00,61.0,47.0,29.80,North,0,0.0,2.0,60,0.00,,,0.00,,2013-01-10 00:12:00,
2013-01-09 16:21:00,59.0,42.0,29.80,North,0,0.0,0.0,53,0.00,,,0.00,,2013-01-10 00:21:00,
2013-01-09 16:22:00,61.0,41.0,29.80,North,0,0.0,0.0,47,0.00,,,0.00,,2013-01-10 00:22:00,
2013-01-09 16:32:00,61.0,41.0,29.80,North,0,0.0,0.0,47,0.00,,,0.00,,2013-01-10 00:32:00,
2013-01-09 16:42:00,61.0,41.0,29.80,North,0,0.0,0.0,47,0.00,,,0.00,,2013-01-10 00:42:00,
2013-01-09 16:53:00,59.0,42.0,29.80,North,0,0.0,0.0,53,0.00,,,0.00,,2013-01-10 00:53:00,
2013-01-09 17:02:00,59.0,42.0,29.80,North,0,0.0,0.0,53,0.00,,,0.00,,2013-01-10 01:02:00,
2013-01-09 17:12:00,59.0,42.0,29.80,North,0,0.0,0.0,53,0.00,,,0.00,,2013-01-10 01:12:00,
2013-01-09 18:41:00,52.0,41.0,29.79,North,0,0.0,9.0,65,0.00,,,0.00,,2013-01-10 02:41:00,
2013-01-09 19:02:00,52.0,41.0,29.79,North,0,0.0,9.0,65,0.00,,,0.00,,2013-01-10 03:02:00,
2013-01-09 19:11:00,52.0,41.0,29.79,North,0,0.0,9.0,65,0.00,,,0.00,,2013-01-10 03:11:00,
2013-01-09 19:22:00,52.0,41.0,29.79,North,0,0.0,9.0,65,0.00,,,0.00,,2013-01-10 03:22:00,
2013-01-09 19:32:00,52.0,41.0,29.79,North,0,0.0,9.0,65,0.00,,,0.00,,2013-01-10 03:32:00,
2013-01-09 19:52:00,52.0,37.0,29.78,North,0,0.0,0.0,57,0.00,,,0.00,,2013-01-10 03:52:00,
2013-01-09 20:02:00,52.0,37.0,29.78,North,0,0.0,0.0,57,0.00,,,0.00,,2013-01-10 04:02:00,
2013-01-09 20:12:00,52.0,37.0,29.78,North,0,0.0,0.0,57,0.00,,,0.00,,2013-01-10 04:12:00,
2013-01-09 20:22:00,51.0,37.0,29.78,NW,321,5.0,7.0,58,0.00,,,0.00,,2013-01-10 04:22:00,
2013-01-09 20:32:00,51.0,37.0,29.78,NW,321,5.0,7.0,58,0.00,,,0.00,,2013-01-10 04:32:00,
2013-01-09 20:43:00,51.0,37.0,29.78,NW,321,5.0,7.0,58,0.00,,,0.00,,2013-01-10 04:43:00,
2013-01-09 20:52:00,53.0,34.0,29.78,North,0,0.0,5.0,48,0.00,,,0.00,,2013-01-10 04:52:00,
2013-01-09 21:02:00,53.0,36.0,29.78,SSW,201,4.0,6.0,52,0.00,,,0.00,,2013-01-10 05:02:00,
2013-01-09 21:12:00,53.0,36.0,29.78,SSW,201,4.0,6.0,52,0.00,,,0.00,,2013-01-10 05:12:00,
2013-01-09 21:22:00,52.0,35.0,29.77,North,0,0.0,4.0,52,0.00,,,0.00,,2013-01-10 05:22:00,
2013-01-09 21:32:00,52.0,35.0,29.77,North,0,0.0,4.0,52,0.00,,,0.00,,2013-01-10 05:32:00,
2013-01-09 21:42:00,52.0,35.0,29.77,North,0,0.0,4.0,52,0.00,,,0.00,,2013-01-10 05:42:00,
2013-01-09 21:52:00,49.0,39.0,29.77,North,0,0.0,7.0,67,0.00,,,0.00,,2013-01-10 05:52:00,
2013-01-09 22:02:00,49.0,39.0,29.77,North,0,0.0,7.0,67,0.00,,,0.00,,2013-01-10 06:02:00,
2013-01-09 22:11:00,49.0,39.0,29.77,North,0,0.0,7.0,67,0.00,,,0.00,,2013-01-10 06:11:00,
2013-01-09 22:22:00,44.0,42.0,29.78,SW,221,6.0,15.0,93,0.00,,,0.00,,2013-01-10 06:22:00,
2013-01-09 22:32:00,44.0,42.0,29.78,SW,221,6.0,15.0,93,0.00,,,0.00,,2013-01-10 06:32:00,
2013-01-09 22:42:00,44.0,42.0,29.78,SW,221,6.0,15.0,93,0.00,,,0.00,,2013-01-10 06:42:00,
2013-01-09 22:52:00,44.0,42.0,29.77,SSW,193,3.0,8.0,94,0.00,,,0.00,,2013-01-10 06:52:00,
2013-01-09 23:01:00,44.0,42.0,29.77,North,0,0.0,4.0,94,0.00,,,0.00,,2013-01-10 07:01:00,
2013-01-09 23:11:00,44.0,42.0,29.77,North,0,0.0,4.0,94,0.00,,,0.00,,2013-01-10 07:11:00,
2013-01-09 23:22:00,44.0,42.0,29.77,North,0,0.0,4.0,94,0.00,,,0.00,,2013-01-10 07:22:00,
2013-01-09 23:32:00,44.0,42.0,29.77,North,0,0.0,4.0,94,0.00,,,0.00,,2013-01-10 07:32:00,
2013-01-09 23:52:00,44.0,43.0,29.76,North,0,0.0,1.0,95,0.00,,,0.00,,2013-01-10 07:52:00,